createdAt,value
2019-01-13T11:03:41.422Z,37.05
2019-01-13T11:06:18.334Z,37.85
2019-01-13T11:08:54.872Z,41.85
2019-01-13T11:11:31.821Z,32.03
2019-01-13T11:14:08.813Z,37.38
2019-01-13T11:16:45.864Z,34.58
2019-01-13T11:19:22.477Z,33.65
2019-01-13T11:21:59.280Z,35.68
2019-01-13T11:24:35.780Z,41.40
2019-01-13T11:27:12.833Z,32.65
2019-01-13T11:29:49.736Z,34.18
2019-01-13T11:32:25.643Z,37.93
2019-01-13T11:35:02.734Z,37.42
2019-01-13T11:37:39.559Z,37.40
2019-01-13T11:40:18.376Z,39.03
2019-01-13T11:42:54.908Z,104.95
2019-01-13T11:45:31.767Z,55.55
2019-01-13T11:48:08.888Z,58.73
2019-01-13T11:50:45.296Z,62.20
2019-01-13T11:53:22.440Z,65.97
2019-01-13T11:55:59.195Z,67.78
2019-01-13T11:58:38.665Z,57.38
2019-01-13T12:01:15.456Z,47.40
2019-01-13T12:03:52.491Z,55.23
2019-01-13T12:06:29.904Z,45.60
2019-01-13T12:09:08.041Z,55.67
2019-01-13T12:11:44.797Z,45.20
2019-01-13T12:14:21.324Z,55.05
2019-01-13T12:16:58.431Z,51.37
2019-01-13T12:19:35.553Z,51.02
2019-01-13T12:22:12.342Z,49.80
2019-01-13T12:24:49.040Z,44.35
2019-01-13T12:27:25.807Z,45.00
2019-01-13T12:30:02.442Z,55.10
2019-01-13T12:32:39.731Z,37.88
2019-01-13T12:35:16.829Z,40.60
2019-01-13T12:37:53.623Z,39.60
2019-01-13T12:40:32.182Z,37.93
2019-01-13T12:43:10.141Z,36.50
2019-01-13T12:45:47.267Z,40.58
2019-01-13T12:48:24.611Z,39.78
2019-01-13T12:51:01.237Z,39.50
2019-01-13T12:53:40.610Z,43.13
2019-01-13T12:56:17.192Z,47.58
2019-01-13T12:58:54.084Z,55.43
2019-01-13T13:01:32.078Z,60.12
2019-01-13T13:04:10.970Z,52.05
2019-01-13T13:06:47.568Z,59.27
2019-01-13T13:09:25.017Z,60.88
2019-01-13T13:12:01.542Z,64.72
2019-01-13T13:14:38.202Z,70.12
2019-01-13T13:17:15.307Z,59.58
2019-01-13T13:19:52.056Z,58.02
2019-01-13T13:22:28.972Z,56.50
2019-01-13T13:25:08.800Z,60.17
2019-01-13T13:27:45.812Z,64.30
2019-01-13T13:30:24.649Z,57.90
2019-01-13T13:33:01.629Z,63.40
2019-01-13T13:35:39.937Z,67.32
2019-01-13T13:38:15.971Z,71.15
2019-01-13T13:40:52.539Z,56.83
2019-01-13T13:43:35.661Z,54.73
2019-01-13T13:46:13.305Z,57.73
2019-01-13T13:48:52.939Z,64.85
2019-01-13T13:51:29.336Z,58.92
2019-01-13T13:54:05.924Z,66.55
2019-01-13T13:56:42.703Z,69.07
2019-01-13T13:59:20.572Z,66.17
2019-01-13T14:01:57.678Z,71.60
2019-01-13T14:04:35.339Z,72.40
2019-01-13T14:07:13.460Z,84.85
2019-01-13T14:09:50.205Z,73.87
2019-01-13T14:12:28.411Z,76.28
2019-01-13T14:15:05.169Z,75.95
2019-01-13T14:17:42.275Z,82.50
2019-01-13T14:20:21.261Z,86.72
2019-01-13T14:22:58.489Z,70.65
2019-01-13T14:25:35.182Z,83.42
2019-01-13T14:28:12.295Z,86.40
2019-01-13T14:30:49.305Z,81.80
2019-01-13T14:33:26.291Z,88.65
2019-01-13T14:36:03.665Z,89.52
2019-01-13T14:38:40.688Z,93.70
2019-01-13T14:41:18.789Z,89.83
2019-01-13T14:43:55.378Z,90.28
2019-01-13T14:46:32.173Z,85.30
2019-01-13T14:49:09.396Z,87.88
2019-01-13T14:51:46.871Z,90.07
2019-01-13T14:54:24.235Z,101.90
2019-01-13T14:57:00.987Z,93.27
2019-01-13T14:59:37.936Z,91.57
2019-01-13T15:02:16.154Z,92.37
2019-01-13T15:04:54.303Z,103.32
2019-01-13T15:07:31.704Z,99.10
2019-01-13T15:10:10.779Z,93.35
2019-01-13T15:12:47.811Z,75.85
2019-01-13T15:15:25.228Z,80.77
2019-01-13T15:18:01.900Z,89.77
2019-01-13T15:20:38.292Z,92.88
2019-01-13T15:23:16.221Z,90.53
2019-01-13T15:25:54.140Z,85.05
2019-01-13T15:28:31.889Z,87.60
2019-01-13T15:31:08.357Z,79.87
2019-01-13T15:33:46.065Z,75.72
2019-01-13T15:36:23.156Z,83.05
2019-01-13T15:38:59.826Z,75.15
2019-01-13T15:41:37.953Z,79.27
2019-01-13T15:44:14.464Z,84.22
2019-01-13T15:46:50.889Z,84.03
2019-01-13T15:49:28.141Z,88.80
2019-01-13T15:52:05.530Z,82.02
2019-01-13T15:54:42.082Z,77.27
2019-01-13T15:57:18.941Z,76.65
2019-01-13T15:59:56.063Z,76.67
2019-01-13T16:02:32.569Z,76.47
2019-01-13T16:05:09.906Z,77.82
2019-01-13T16:07:47.838Z,78.52
2019-01-13T16:10:26.625Z,80.97
2019-01-13T16:13:03.575Z,84.17
2019-01-13T16:15:40.281Z,79.62
2019-01-13T16:18:16.838Z,77.82
2019-01-13T16:20:53.563Z,69.00
2019-01-13T16:23:29.898Z,72.50
2019-01-13T16:26:06.683Z,75.52
2019-01-13T16:28:43.162Z,76.25
2019-01-13T16:31:20.451Z,73.02
2019-01-13T16:33:57.088Z,78.60
2019-01-13T16:36:33.792Z,78.07
2019-01-13T16:39:12.241Z,73.95
2019-01-13T16:41:49.686Z,74.30
2019-01-13T16:44:26.564Z,80.53
2019-01-13T16:47:04.293Z,73.07
2019-01-13T16:49:40.778Z,75.95
2019-01-13T16:52:17.781Z,71.62
2019-01-13T16:54:54.436Z,62.95
2019-01-13T16:57:31.378Z,75.55
2019-01-13T17:00:10.003Z,63.05
2019-01-13T17:02:47.206Z,70.22
2019-01-13T17:05:25.588Z,65.57
2019-01-13T17:08:04.899Z,70.65
2019-01-13T17:10:41.239Z,66.50
2019-01-13T17:13:17.974Z,70.00
2019-01-13T17:15:55.135Z,74.87
2019-01-13T17:18:32.015Z,72.60
2019-01-13T17:21:08.646Z,69.25
2019-01-13T17:23:45.442Z,66.53
2019-01-13T17:26:22.416Z,63.10
2019-01-13T17:28:59.241Z,62.50
2019-01-13T17:31:35.726Z,69.07
2019-01-13T17:34:12.859Z,63.60
2019-01-13T17:36:49.498Z,59.93
2019-01-13T17:39:27.323Z,57.35
2019-01-13T17:42:03.992Z,59.18
2019-01-13T17:44:40.735Z,57.65
2019-01-13T17:47:18.006Z,57.30
2019-01-13T17:49:54.488Z,60.67
2019-01-13T17:52:31.143Z,59.23
2019-01-13T17:55:08.424Z,63.73
2019-01-13T17:57:45.124Z,58.85
2019-01-13T18:00:37.062Z,59.30
2019-01-13T18:03:14.905Z,66.22
2019-01-13T18:05:52.554Z,54.63
2019-01-13T18:08:29.893Z,62.48
2019-01-13T18:11:06.609Z,62.30
2019-01-13T18:13:43.763Z,59.27
2019-01-13T18:16:21.404Z,63.05
2019-01-13T18:18:58.263Z,60.78
2019-01-13T18:21:35.006Z,55.48
2019-01-13T18:24:11.391Z,55.67
2019-01-13T18:26:48.287Z,55.17
2019-01-13T18:29:24.839Z,63.52
2019-01-13T18:32:01.708Z,52.40
2019-01-13T18:34:38.550Z,56.73
2019-01-13T18:37:15.236Z,53.80
2019-01-13T18:39:51.822Z,53.33
2019-01-13T18:42:28.932Z,55.88
2019-01-13T18:45:04.930Z,55.43
2019-01-13T18:47:42.084Z,55.70
2019-01-13T18:50:20.840Z,58.10
2019-01-13T18:53:01.149Z,57.03
2019-01-13T18:55:37.806Z,52.50
2019-01-13T18:58:14.632Z,54.90
2019-01-13T19:00:51.154Z,60.43
2019-01-13T19:03:28.806Z,55.17
2019-01-13T19:06:05.627Z,53.28
2019-01-13T19:08:42.489Z,57.75
2019-01-13T19:11:40.887Z,57.62
2019-01-13T19:14:28.546Z,58.87
2019-01-13T19:17:10.310Z,58.25
2019-01-13T19:19:58.951Z,54.83
2019-01-13T19:22:37.311Z,63.35
2019-01-13T19:25:29.519Z,58.75
2019-01-13T19:28:05.973Z,59.23
2019-01-13T19:30:42.251Z,62.03
2019-01-13T19:33:20.185Z,59.75
2019-01-13T19:35:56.991Z,57.58
2019-01-13T19:38:33.789Z,63.05
2019-01-13T19:41:10.461Z,59.70
2019-01-13T19:43:47.420Z,52.43
2019-01-13T19:46:23.824Z,52.88
2019-01-13T19:49:00.624Z,55.98
2019-01-13T19:51:37.438Z,54.08
2019-01-13T19:54:14.265Z,58.17
2019-01-13T19:56:51.309Z,57.27
2019-01-13T19:59:28.134Z,56.50
2019-01-13T20:02:05.298Z,54.10
2019-01-13T20:04:41.889Z,65.00
2019-01-13T20:07:18.620Z,54.38
2019-01-13T20:09:55.328Z,58.35
2019-01-13T20:12:32.731Z,56.45
2019-01-13T20:15:10.514Z,55.03
2019-01-13T20:17:47.252Z,55.67
2019-01-13T20:20:23.992Z,57.85
2019-01-13T20:23:00.842Z,56.80
2019-01-13T20:25:38.098Z,59.27
2019-01-13T20:28:14.638Z,53.87
2019-01-13T20:30:51.514Z,56.77
2019-01-13T20:33:27.889Z,56.48
2019-01-13T20:36:04.826Z,54.58
2019-01-13T20:38:41.616Z,50.48
2019-01-13T20:41:18.703Z,60.25
2019-01-13T20:43:55.280Z,52.20
2019-01-13T20:46:32.076Z,56.68
2019-01-13T20:49:09.060Z,58.55
2019-01-13T20:51:46.016Z,56.23
2019-01-13T20:54:23.065Z,51.75
2019-01-13T20:56:59.785Z,53.83
2019-01-13T20:59:36.936Z,54.48
2019-01-13T21:02:13.726Z,50.83
2019-01-13T21:04:50.226Z,52.43
2019-01-13T21:07:26.751Z,46.55
2019-01-13T21:10:03.119Z,48.95
2019-01-13T21:12:40.313Z,55.10
2019-01-13T21:15:19.897Z,56.10
2019-01-13T21:17:57.566Z,54.50
2019-01-13T21:20:35.044Z,56.50
2019-01-13T21:23:12.370Z,53.78
2019-01-13T21:25:49.710Z,54.00
2019-01-13T21:28:26.994Z,58.23
2019-01-13T21:31:03.560Z,58.30
2019-01-13T21:33:40.414Z,52.98
2019-01-13T21:36:18.778Z,56.85
2019-01-13T21:38:54.735Z,55.67
2019-01-13T21:41:31.521Z,52.05
2019-01-13T21:44:08.540Z,53.83
2019-01-13T21:46:45.153Z,53.87
2019-01-13T21:49:21.797Z,54.77
2019-01-13T21:51:58.468Z,53.00
2019-01-13T21:54:35.076Z,54.95
2019-01-13T21:57:11.700Z,54.13
2019-01-13T21:59:48.832Z,51.83
2019-01-13T22:02:25.477Z,52.95
2019-01-13T22:05:02.266Z,51.90
2019-01-13T22:07:39.508Z,54.70
2019-01-13T22:10:18.249Z,54.88
2019-01-13T22:12:55.840Z,56.83
2019-01-13T22:15:32.756Z,53.70
2019-01-13T22:18:09.624Z,56.98
2019-01-13T22:20:46.774Z,56.23
2019-01-13T22:23:23.383Z,54.20
2019-01-13T22:25:59.983Z,51.98
2019-01-13T22:28:37.105Z,57.55
2019-01-13T22:31:13.994Z,56.95
2019-01-13T22:33:50.894Z,54.58
2019-01-13T22:36:27.416Z,53.80
2019-01-13T22:39:07.691Z,60.78
2019-01-13T22:41:44.058Z,61.42
2019-01-13T22:44:21.250Z,55.58
2019-01-13T22:46:58.011Z,63.15
2019-01-13T22:49:34.799Z,63.78
2019-01-13T22:52:11.499Z,56.75
2019-01-13T22:54:48.036Z,60.78
2019-01-13T22:57:24.898Z,70.25
2019-01-13T23:00:01.704Z,63.80
2019-01-13T23:02:40.014Z,65.45
2019-01-13T23:05:16.951Z,69.92
2019-01-13T23:07:53.599Z,62.50
2019-01-13T23:10:30.227Z,62.35
2019-01-13T23:13:08.033Z,69.17
2019-01-13T23:15:44.763Z,67.08
2019-01-13T23:18:21.098Z,64.37
2019-01-13T23:20:57.811Z,62.20
2019-01-13T23:23:34.801Z,66.55
2019-01-13T23:26:11.703Z,62.70
2019-01-13T23:28:48.694Z,63.23
2019-01-13T23:31:25.599Z,68.10
2019-01-13T23:34:03.701Z,64.83
2019-01-13T23:36:40.278Z,62.43
2019-01-13T23:39:17.995Z,60.90
2019-01-13T23:41:55.076Z,67.47
2019-01-13T23:44:31.397Z,62.60
2019-01-13T23:47:08.559Z,75.90
2019-01-13T23:49:44.825Z,65.92
2019-01-13T23:52:21.525Z,59.45
2019-01-13T23:54:58.326Z,54.20
2019-01-13T23:57:36.045Z,63.60
